createdAt,value
2018-08-16T00:00:47.525Z,60.33
2018-08-16T00:03:19.407Z,60.17
2018-08-16T00:05:51.625Z,60.74
2018-08-16T00:08:23.266Z,60.30
2018-08-16T00:10:54.256Z,60.78
2018-08-16T00:13:24.620Z,61.67
2018-08-16T00:15:55.946Z,61.08
2018-08-16T00:18:29.726Z,60.88
2018-08-16T00:21:00.613Z,60.55
2018-08-16T00:23:31.255Z,60.03
2018-08-16T00:26:03.715Z,60.29
2018-08-16T00:28:34.884Z,61.08
2018-08-16T00:31:05.587Z,61.33
2018-08-16T00:36:30.962Z,61.14
2018-08-16T00:38:59.984Z,61.04
2018-08-16T00:41:28.965Z,62.27
2018-08-16T00:43:57.812Z,60.71
2018-08-16T00:46:26.654Z,62.11
2018-08-16T00:48:55.589Z,61.06
2018-08-16T00:51:24.619Z,60.97
2018-08-16T00:53:53.463Z,61.25
2018-08-16T00:56:22.363Z,61.60
2018-08-16T00:58:51.249Z,61.72
2018-08-16T01:01:20.191Z,61.52
2018-08-16T01:03:49.008Z,60.75
2018-08-16T01:06:17.924Z,61.36
2018-08-16T01:08:46.827Z,60.98
2018-08-16T01:11:15.699Z,61.12
2018-08-16T01:13:44.548Z,61.08
2018-08-16T01:16:13.504Z,61.08
2018-08-16T01:18:42.855Z,61.08
2018-08-16T01:21:12.985Z,60.47
2018-08-16T01:23:42.961Z,60.58
2018-08-16T01:26:12.915Z,60.27
2018-08-16T01:28:41.848Z,60.74
2018-08-16T01:31:10.671Z,60.36
2018-08-16T01:33:44.711Z,60.60
2018-08-16T01:36:14.939Z,60.50
2018-08-16T01:38:45.740Z,60.94
2018-08-16T01:41:16.945Z,60.17
2018-08-16T01:43:47.730Z,60.54
2018-08-16T01:46:18.181Z,60.10
2018-08-16T01:48:48.904Z,60.22
2018-08-16T01:51:18.764Z,60.81
2018-08-16T01:53:50.606Z,61.39
2018-08-16T01:56:22.077Z,61.84
2018-08-16T01:58:53.357Z,61.64
2018-08-16T02:01:24.836Z,61.97
2018-08-16T02:03:55.800Z,61.47
2018-08-16T02:06:25.938Z,62.19
2018-08-16T02:08:56.724Z,62.09
2018-08-16T02:11:29.228Z,61.95
2018-08-16T02:13:59.359Z,62.14
2018-08-16T02:16:29.526Z,61.71
2018-08-16T02:19:02.595Z,61.83
2018-08-16T02:21:34.713Z,61.31
2018-08-16T02:24:04.759Z,61.62
2018-08-16T02:26:35.406Z,61.50
2018-08-16T02:29:06.915Z,62.67
2018-08-16T02:31:36.597Z,63.04
2018-08-16T02:34:07.872Z,63.53
2018-08-16T02:36:39.131Z,62.89
2018-08-16T02:39:11.657Z,62.23
2018-08-16T02:41:41.966Z,61.77
2018-08-16T02:44:16.735Z,61.93
2018-08-16T02:46:47.288Z,62.85
2018-08-16T02:49:18.506Z,62.53
2018-08-16T02:51:49.421Z,62.60
2018-08-16T02:54:20.594Z,61.96
2018-08-16T02:56:51.316Z,62.78
2018-08-16T02:59:21.683Z,62.31
2018-08-16T03:01:52.261Z,62.57
2018-08-16T03:04:25.025Z,63.22
2018-08-16T03:06:56.596Z,62.42
2018-08-16T03:09:27.245Z,62.36
2018-08-16T03:11:58.057Z,63.53
2018-08-16T03:14:30.839Z,62.72
2018-08-16T03:17:02.341Z,62.38
2018-08-16T03:19:33.519Z,63.90
2018-08-16T03:22:02.385Z,64.02
2018-08-16T03:24:31.296Z,64.06
2018-08-16T03:27:01.176Z,64.04
2018-08-16T03:29:31.102Z,64.37
2018-08-16T03:32:00.000Z,64.30
2018-08-16T03:34:29.241Z,64.39
2018-08-16T03:36:58.182Z,64.88
2018-08-16T03:39:27.089Z,65.38
2018-08-16T03:41:56.026Z,65.57
2018-08-16T03:44:24.873Z,64.33
2018-08-16T03:46:53.829Z,64.55
2018-08-16T03:49:22.993Z,65.25
2018-08-16T03:51:51.983Z,64.74
2018-08-16T03:54:20.948Z,64.54
2018-08-16T03:56:49.761Z,63.97
2018-08-16T03:59:18.596Z,63.43
2018-08-16T04:01:47.530Z,63.95
2018-08-16T04:04:16.390Z,63.68
2018-08-16T04:06:45.415Z,64.43
2018-08-16T04:09:14.299Z,63.35
2018-08-16T04:14:18.223Z,63.93
2018-08-16T04:16:47.466Z,63.49
2018-08-16T04:19:16.606Z,63.03
2018-08-16T04:21:45.472Z,63.04
2018-08-16T04:24:14.319Z,62.86
2018-08-16T04:26:43.253Z,63.41
2018-08-16T04:29:12.113Z,62.79
2018-08-16T04:31:40.921Z,62.33
2018-08-16T04:34:09.739Z,61.35
2018-08-16T04:36:38.725Z,59.66
2018-08-16T04:39:08.315Z,60.00
2018-08-16T04:41:37.594Z,59.92
2018-08-16T04:44:06.628Z,60.80
2018-08-16T04:46:35.484Z,60.90
2018-08-16T04:49:04.420Z,60.43
2018-08-16T04:51:33.300Z,61.07
2018-08-16T04:54:02.146Z,60.37
2018-08-16T04:56:32.172Z,59.76
2018-08-16T04:59:02.175Z,60.33
2018-08-16T05:01:32.123Z,60.68
2018-08-16T05:04:02.013Z,59.01
2018-08-16T05:06:31.920Z,60.01
2018-08-16T05:09:00.766Z,59.29
2018-08-16T05:11:29.751Z,58.92
2018-08-16T05:13:58.933Z,59.00
2018-08-16T05:16:27.667Z,59.02
2018-08-16T05:18:57.558Z,56.85
2018-08-16T05:21:26.421Z,57.72
2018-08-16T05:23:55.324Z,55.86
2018-08-16T05:26:24.201Z,55.88
2018-08-16T05:28:54.008Z,55.48
2018-08-16T05:31:22.958Z,56.04
2018-08-16T05:33:51.837Z,55.77
2018-08-16T05:36:20.719Z,54.63
2018-08-16T05:38:49.565Z,54.04
2018-08-16T05:41:18.753Z,53.66
2018-08-16T05:43:47.765Z,54.43
2018-08-16T05:46:16.953Z,53.12
2018-08-16T05:48:47.213Z,51.65
2018-08-16T05:51:16.103Z,54.06
2018-08-16T05:53:44.956Z,52.87
2018-08-16T05:56:13.859Z,52.87
2018-08-16T05:58:43.739Z,51.84
2018-08-16T06:01:12.770Z,51.96
2018-08-16T06:03:41.674Z,52.34
2018-08-16T06:06:10.449Z,52.20
2018-08-16T06:08:39.266Z,51.31
2018-08-16T06:11:08.099Z,50.58
2018-08-16T06:13:36.990Z,50.53
2018-08-16T06:16:06.715Z,48.96
2018-08-16T06:18:35.506Z,49.02
2018-08-16T06:21:04.543Z,48.75
2018-08-16T06:23:33.412Z,49.00
2018-08-16T06:26:02.785Z,48.62
2018-08-16T06:28:33.180Z,47.03
2018-08-16T06:31:02.973Z,48.76
2018-08-16T06:33:32.999Z,48.44
2018-08-16T06:38:37.037Z,48.53
2018-08-16T06:41:05.870Z,47.84
2018-08-16T06:43:34.735Z,48.18
2018-08-16T06:46:03.726Z,47.05
2018-08-16T06:48:33.293Z,46.90
2018-08-16T06:51:09.014Z,47.41
2018-08-16T06:53:38.346Z,48.56
2018-08-16T06:56:07.143Z,45.90
2018-08-16T06:58:35.974Z,47.40
2018-08-16T07:01:04.803Z,46.50
2018-08-16T07:03:33.580Z,47.28
2018-08-16T07:06:06.325Z,46.81
2018-08-16T07:08:35.194Z,46.10
2018-08-16T07:11:04.237Z,44.81
2018-08-16T07:13:33.437Z,45.27
2018-08-16T07:16:03.687Z,45.08
2018-08-16T07:18:33.709Z,45.67
2018-08-16T07:21:03.377Z,46.63
2018-08-16T07:23:32.293Z,46.57
2018-08-16T07:26:01.221Z,44.46
2018-08-16T07:28:30.114Z,45.00
2018-08-16T07:30:59.271Z,45.27
2018-08-16T07:33:28.217Z,43.82
2018-08-16T07:35:57.058Z,44.35
2018-08-16T07:38:25.865Z,46.08
2018-08-16T07:40:54.687Z,43.99
2018-08-16T07:43:23.694Z,43.67
2018-08-16T07:45:52.677Z,44.35
2018-08-16T07:48:21.414Z,44.65
2018-08-16T07:50:50.256Z,43.07
2018-08-16T07:53:19.194Z,43.69
2018-08-16T07:55:48.057Z,43.20
2018-08-16T07:58:16.960Z,43.60
2018-08-16T08:00:46.425Z,42.62
2018-08-16T08:03:15.345Z,41.38
2018-08-16T08:05:44.272Z,42.52
2018-08-16T08:08:15.215Z,40.92
2018-08-16T08:10:44.114Z,42.46
2018-08-16T08:13:13.043Z,39.47
2018-08-16T08:15:41.896Z,41.47
2018-08-16T08:18:10.807Z,39.80
2018-08-16T08:20:39.736Z,40.52
2018-08-16T08:23:08.663Z,40.32
2018-08-16T08:25:37.585Z,39.07
2018-08-16T08:28:07.239Z,38.15
2018-08-16T08:30:36.062Z,36.35
2018-08-16T08:33:05.140Z,36.30
2018-08-16T08:35:34.127Z,37.64
2018-08-16T08:38:16.188Z,37.64
2018-08-16T08:40:44.982Z,37.86
2018-08-16T08:45:23.446Z,40.34
2018-08-16T08:47:56.120Z,38.71
2018-08-16T08:50:25.443Z,38.27
2018-08-16T08:52:59.150Z,37.26
2018-08-16T08:55:39.240Z,36.78
2018-08-16T08:58:19.234Z,39.02
2018-08-16T09:00:48.184Z,38.78
2018-08-16T09:03:17.067Z,38.09
2018-08-16T09:05:45.932Z,37.32
2018-08-16T09:08:14.865Z,37.08
2018-08-16T09:10:55.713Z,37.83
2018-08-16T09:13:36.637Z,37.50
2018-08-16T09:16:18.837Z,39.23
2018-08-16T09:18:48.194Z,37.57
2018-08-16T09:21:17.253Z,38.68
2018-08-16T09:23:46.174Z,39.23
2018-08-16T09:26:20.416Z,37.32
2018-08-16T09:28:49.651Z,37.73
2018-08-16T09:31:29.581Z,39.98
2018-08-16T09:34:09.496Z,40.01
2018-08-16T09:36:38.619Z,40.54
2018-08-16T09:39:09.126Z,42.39
2018-08-16T09:41:38.996Z,41.77
2018-08-16T09:44:08.245Z,41.35
2018-08-16T09:46:50.936Z,43.10
2018-08-16T09:49:19.919Z,42.37
2018-08-16T09:51:48.979Z,44.15
2018-08-16T09:54:17.935Z,44.25
2018-08-16T09:56:47.344Z,39.28
2018-08-16T09:59:16.496Z,40.36
2018-08-16T10:01:45.407Z,35.14
2018-08-16T10:04:14.324Z,35.76
2018-08-16T10:06:43.652Z,37.63
2018-08-16T10:09:21.113Z,38.06
2018-08-16T10:11:50.212Z,35.15
2018-08-16T10:14:19.586Z,33.80
2018-08-16T10:16:48.482Z,32.99
2018-08-16T10:19:17.854Z,33.50
2018-08-16T10:21:46.764Z,35.42
2018-08-16T10:24:15.628Z,32.68
2018-08-16T10:26:44.502Z,32.36
2018-08-16T10:29:13.620Z,32.21
2018-08-16T10:31:42.486Z,33.35
2018-08-16T10:34:11.334Z,32.17
2018-08-16T10:36:40.371Z,32.98
2018-08-16T10:39:16.018Z,33.79
2018-08-16T10:41:44.779Z,33.26
2018-08-16T10:44:14.388Z,30.62
2018-08-16T10:46:43.336Z,31.59
2018-08-16T10:49:12.412Z,33.33
2018-08-16T10:51:41.333Z,33.88
2018-08-16T10:54:10.200Z,33.51
2018-08-16T10:56:39.097Z,33.03
2018-08-16T10:59:09.807Z,35.01
2018-08-16T11:01:39.013Z,33.30
2018-08-16T11:04:08.842Z,34.41
2018-08-16T11:06:38.970Z,36.77
2018-08-16T11:09:10.041Z,34.29
2018-08-16T11:11:39.354Z,36.21
2018-08-16T11:14:09.033Z,32.46
2018-08-16T11:16:38.948Z,32.27
2018-08-16T11:19:09.913Z,32.98
2018-08-16T11:21:39.249Z,30.61
2018-08-16T11:24:09.041Z,30.44
2018-08-16T11:26:39.048Z,29.71
2018-08-16T11:29:08.968Z,29.64
2018-08-16T11:31:37.832Z,30.27
2018-08-16T11:34:06.666Z,33.00
2018-08-16T11:36:35.543Z,31.27
2018-08-16T11:39:05.971Z,34.23
2018-08-16T11:41:34.941Z,33.32
2018-08-16T11:44:03.983Z,34.43
2018-08-16T11:46:33.166Z,34.32
2018-08-16T11:49:01.938Z,32.31
2018-08-16T11:51:30.931Z,33.81
2018-08-16T11:54:00.270Z,34.16
2018-08-16T11:56:29.151Z,33.79
2018-08-16T11:58:57.993Z,33.63
2018-08-16T12:01:27.016Z,29.61
2018-08-16T12:03:55.834Z,30.60
2018-08-16T12:11:33.710Z,29.11
2018-08-16T12:14:02.643Z,28.35
2018-08-16T12:16:31.525Z,32.95
2018-08-16T12:19:00.404Z,31.33
2018-08-16T12:21:29.174Z,31.87
2018-08-16T12:23:58.061Z,32.38
2018-08-16T12:26:27.144Z,33.61
2018-08-16T12:28:56.045Z,35.41
2018-08-16T12:31:24.863Z,35.55
2018-08-16T12:33:54.019Z,35.27
2018-08-16T12:36:22.940Z,35.06
2018-08-16T12:38:51.750Z,34.62
2018-08-16T12:41:20.573Z,34.65
2018-08-16T12:43:49.468Z,35.54
2018-08-16T12:46:18.344Z,35.26
2018-08-16T12:48:47.121Z,35.46
2018-08-16T12:51:16.048Z,34.78
2018-08-16T12:53:44.932Z,35.36
2018-08-16T12:56:13.780Z,35.69
2018-08-16T12:58:42.721Z,33.27
2018-08-16T13:01:11.524Z,36.90
2018-08-16T13:03:46.621Z,35.37
2018-08-16T13:06:15.429Z,33.82
2018-08-16T13:08:44.334Z,36.01
2018-08-16T13:11:13.937Z,32.81
2018-08-16T13:13:42.717Z,32.58
2018-08-16T13:16:11.642Z,32.46
2018-08-16T13:18:40.638Z,33.22
2018-08-16T13:21:10.104Z,31.85
2018-08-16T13:23:40.085Z,31.88
2018-08-16T13:33:42.445Z,32.65
2018-08-16T13:36:11.244Z,31.80
2018-08-16T13:38:40.229Z,33.35
2018-08-16T13:41:16.035Z,31.15
2018-08-16T13:43:44.782Z,33.86
2018-08-16T13:46:13.715Z,32.59
2018-08-16T13:51:17.253Z,32.54
2018-08-16T13:53:46.166Z,32.79
2018-08-16T13:56:15.002Z,30.10
2018-08-16T13:58:44.550Z,30.05
2018-08-16T14:01:13.491Z,29.83
2018-08-16T14:03:43.045Z,29.43
2018-08-16T14:06:11.941Z,29.79
2018-08-16T14:08:40.840Z,29.69
2018-08-16T14:11:10.524Z,29.67
2018-08-16T14:13:39.729Z,30.98
2018-08-16T14:16:08.691Z,27.83
2018-08-16T14:18:37.596Z,28.84
2018-08-16T14:21:06.393Z,30.18
2018-08-16T14:23:35.289Z,31.33
2018-08-16T14:26:04.176Z,31.24
2018-08-16T14:28:32.959Z,29.63
2018-08-16T14:31:01.828Z,30.72
2018-08-16T14:33:30.713Z,30.25
2018-08-16T14:38:33.684Z,29.66
2018-08-16T14:41:02.496Z,28.87
2018-08-16T14:43:31.392Z,29.48
2018-08-16T14:46:00.227Z,29.07
2018-08-16T14:48:29.080Z,27.71
2018-08-16T14:50:57.948Z,27.83
2018-08-16T14:53:31.837Z,29.83
2018-08-16T14:56:03.892Z,29.69
2018-08-16T14:58:36.783Z,29.13
2018-08-16T15:01:08.576Z,27.91
2018-08-16T15:03:39.995Z,30.25
2018-08-16T15:06:12.577Z,29.10
2018-08-16T15:08:46.174Z,27.68
2018-08-16T15:11:16.722Z,29.00
2018-08-16T15:13:47.031Z,28.70
2018-08-16T15:16:18.276Z,26.87
2018-08-16T15:18:50.843Z,28.41
2018-08-16T15:21:22.317Z,27.94
2018-08-16T15:23:52.541Z,29.07
2018-08-16T15:26:22.852Z,29.19
2018-08-16T15:28:53.627Z,29.71
2018-08-16T15:31:25.144Z,28.27
2018-08-16T15:33:56.883Z,29.90
2018-08-16T15:36:28.355Z,28.97
2018-08-16T15:41:36.891Z,27.89
2018-08-16T15:44:10.857Z,29.21
2018-08-16T15:46:42.194Z,28.56
2018-08-16T15:49:14.286Z,29.74
2018-08-16T15:51:45.424Z,29.81
2018-08-16T15:54:16.872Z,30.09
2018-08-16T15:56:47.676Z,29.60
2018-08-16T15:59:18.392Z,30.87
2018-08-16T16:01:50.880Z,30.16
2018-08-16T16:04:23.235Z,29.88
2018-08-16T16:06:53.368Z,30.69
2018-08-16T16:09:27.799Z,29.98
2018-08-16T16:14:36.006Z,30.48
2018-08-16T16:17:06.749Z,30.38
2018-08-16T16:19:37.514Z,30.10
2018-08-16T16:22:09.284Z,29.78
2018-08-16T16:24:41.613Z,30.09
2018-08-16T16:27:13.455Z,30.81
2018-08-16T16:29:45.046Z,30.17
2018-08-16T16:32:16.668Z,29.60
2018-08-16T16:37:23.269Z,32.49
2018-08-16T16:39:55.706Z,31.63
2018-08-16T16:42:26.728Z,32.75
2018-08-16T16:44:57.502Z,33.04
2018-08-16T16:47:27.689Z,32.42
2018-08-16T16:50:00.227Z,33.17
2018-08-16T16:52:31.572Z,31.40
2018-08-16T16:55:03.090Z,31.61
2018-08-16T16:57:36.289Z,30.01
2018-08-16T17:00:08.387Z,30.73
2018-08-16T17:02:39.073Z,30.11
2018-08-16T17:05:10.299Z,31.30
2018-08-16T17:07:42.290Z,32.88
2018-08-16T17:10:15.785Z,32.78
2018-08-16T17:12:45.812Z,34.89
2018-08-16T17:15:17.756Z,34.60
2018-08-16T17:17:50.697Z,35.96
2018-08-16T17:20:22.878Z,35.67
2018-08-16T17:22:54.856Z,36.19
2018-08-16T17:25:28.924Z,36.46
2018-08-16T17:28:01.776Z,36.30
2018-08-16T17:30:33.807Z,36.58
2018-08-16T17:33:05.962Z,37.50
2018-08-16T17:35:37.920Z,38.83
2018-08-16T17:38:09.969Z,38.87
2018-08-16T17:40:41.187Z,39.19
2018-08-16T17:43:14.025Z,40.14
2018-08-16T17:45:48.375Z,40.66
2018-08-16T17:48:19.020Z,40.58
2018-08-16T17:50:49.683Z,41.66
2018-08-16T17:58:18.089Z,44.57
2018-08-16T18:00:48.232Z,44.44
2018-08-16T18:03:21.483Z,43.78
2018-08-16T18:05:53.483Z,44.41
2018-08-16T18:08:24.862Z,44.34
2018-08-16T18:10:56.381Z,43.73
2018-08-16T18:13:28.433Z,43.70
2018-08-16T18:15:59.179Z,43.49
2018-08-16T18:18:30.380Z,44.45
2018-08-16T18:21:00.635Z,44.57
2018-08-16T18:23:31.880Z,44.49
2018-08-16T18:26:05.292Z,45.32
2018-08-16T18:28:38.154Z,45.05
2018-08-16T18:31:10.889Z,45.63
2018-08-16T18:33:43.457Z,46.10
2018-08-16T18:36:16.661Z,46.77
2018-08-16T18:38:48.322Z,46.73
2018-08-16T18:41:20.533Z,46.52
2018-08-16T18:43:54.216Z,47.94
2018-08-16T18:46:25.329Z,47.42
2018-08-16T18:48:57.329Z,46.64
2018-08-16T18:51:29.323Z,47.95
2018-08-16T18:54:01.064Z,48.33
2018-08-16T18:56:32.387Z,48.32
2018-08-16T18:59:03.529Z,47.95
2018-08-16T19:01:34.358Z,48.81
2018-08-16T19:04:04.928Z,48.96
2018-08-16T19:06:36.703Z,49.25
2018-08-16T19:09:10.211Z,48.86
2018-08-16T19:11:40.736Z,48.86
2018-08-16T19:14:12.438Z,48.75
2018-08-16T19:16:45.971Z,49.96
2018-08-16T19:19:16.795Z,49.84
2018-08-16T19:21:47.561Z,50.25
2018-08-16T19:24:19.901Z,49.70
2018-08-16T19:26:50.836Z,49.41
2018-08-16T19:29:22.605Z,50.61
2018-08-16T19:31:53.309Z,50.54
2018-08-16T19:34:25.815Z,50.10
2018-08-16T19:36:57.560Z,50.73
2018-08-16T19:39:27.514Z,49.88
2018-08-16T19:41:58.622Z,50.04
2018-08-16T19:44:30.248Z,52.03
2018-08-16T19:47:01.714Z,51.44
2018-08-16T19:49:36.370Z,51.83
2018-08-16T19:52:10.410Z,51.82
2018-08-16T19:54:41.128Z,52.05
2018-08-16T19:57:17.058Z,51.69
2018-08-16T19:59:48.358Z,52.14
2018-08-16T20:02:20.866Z,52.55
2018-08-16T20:04:50.846Z,52.15
2018-08-16T20:07:22.517Z,51.85
2018-08-16T20:09:54.600Z,52.39
2018-08-16T20:12:26.536Z,52.33
2018-08-16T20:14:58.457Z,52.57
2018-08-16T20:17:31.457Z,54.03
2018-08-16T20:20:04.645Z,53.65
2018-08-16T20:22:35.943Z,53.49
2018-08-16T20:25:09.804Z,53.56
2018-08-16T20:27:41.982Z,53.97
2018-08-16T20:30:16.852Z,54.92
2018-08-16T20:32:48.085Z,55.13
2018-08-16T20:35:20.636Z,54.82
2018-08-16T20:37:51.693Z,54.25
2018-08-16T20:40:24.274Z,54.08
2018-08-16T20:42:54.933Z,54.20
2018-08-16T20:45:26.712Z,54.21
2018-08-16T20:50:35.806Z,54.97
2018-08-16T20:53:07.494Z,54.59
2018-08-16T20:55:37.749Z,54.38
2018-08-16T20:58:08.585Z,54.79
2018-08-16T21:00:39.853Z,55.57
2018-08-16T21:03:12.889Z,55.77
2018-08-16T21:05:44.877Z,55.58
2018-08-16T21:08:16.108Z,55.41
2018-08-16T21:10:47.572Z,56.35
2018-08-16T21:13:18.888Z,55.49
2018-08-16T21:15:51.457Z,55.69
2018-08-16T21:18:22.414Z,56.28
2018-08-16T21:20:54.460Z,56.46
2018-08-16T21:23:28.436Z,55.49
2018-08-16T21:25:59.456Z,55.46
2018-08-16T21:28:30.915Z,56.28
2018-08-16T21:31:03.938Z,56.29
2018-08-16T21:33:39.115Z,55.47
2018-08-16T21:36:11.581Z,56.36
2018-08-16T21:38:42.329Z,57.07
2018-08-16T21:41:13.312Z,57.18
2018-08-16T21:43:42.377Z,56.54
2018-08-16T21:46:13.051Z,56.32
2018-08-16T21:48:44.534Z,56.58
2018-08-16T21:51:16.857Z,57.39
2018-08-16T21:53:48.610Z,57.95
2018-08-16T21:56:21.714Z,57.91
2018-08-16T21:58:53.104Z,57.62
2018-08-16T22:01:25.245Z,57.26
2018-08-16T22:06:42.951Z,57.93
2018-08-16T22:09:14.189Z,57.75
2018-08-16T22:11:46.075Z,57.98
2018-08-16T22:14:18.577Z,58.95
2018-08-16T22:16:50.064Z,59.53
2018-08-16T22:19:20.761Z,59.31
2018-08-16T22:24:31.558Z,59.32
2018-08-16T22:27:03.293Z,58.48
2018-08-16T22:29:36.209Z,58.14
2018-08-16T22:32:07.599Z,57.74
2018-08-16T22:34:43.959Z,58.22
2018-08-16T22:37:15.290Z,58.41
2018-08-16T22:39:47.450Z,58.18
2018-08-16T22:42:19.678Z,58.25
2018-08-16T22:44:52.102Z,59.05
2018-08-16T22:47:24.269Z,58.85
2018-08-16T22:49:57.896Z,59.20
2018-08-16T22:52:30.211Z,60.16
2018-08-16T22:55:00.933Z,61.01
2018-08-16T22:57:34.048Z,60.97
2018-08-16T23:00:04.449Z,60.17
2018-08-16T23:02:35.992Z,59.79
2018-08-16T23:05:06.729Z,59.03
2018-08-16T23:07:38.559Z,58.73
2018-08-16T23:10:11.074Z,58.84
2018-08-16T23:12:42.659Z,59.24
2018-08-16T23:15:15.746Z,60.04
2018-08-16T23:17:51.694Z,60.11
2018-08-16T23:20:22.950Z,59.12
2018-08-16T23:22:57.929Z,59.16
2018-08-16T23:25:29.187Z,59.70
2018-08-16T23:28:00.669Z,59.90
2018-08-16T23:30:32.560Z,59.93
2018-08-16T23:33:03.256Z,59.37
2018-08-16T23:35:34.264Z,59.58
2018-08-16T23:38:08.336Z,59.91
2018-08-16T23:40:39.664Z,60.19
2018-08-16T23:43:12.627Z,60.38
2018-08-16T23:45:44.205Z,60.43
2018-08-16T23:48:25.057Z,60.83
2018-08-16T23:50:56.907Z,61.69
2018-08-16T23:53:29.163Z,61.33
2018-08-16T23:55:59.920Z,61.70
2018-08-16T23:58:31.111Z,61.55
